This is the latest recevied weather packets stored in our database for station/object KL7LK-13. If no packets are shown the sender has not sent any weather packets the latest 10 day(s).
| Time | Temp. | Humidity | Pressure | Rain* | Wind** | Luminosity | Snow |
|---|---|---|---|---|---|---|---|
| 1777371179 | 5° C | 70% | 1026.7 hPa | - | - | 0 W/m² | - |
| 1777368822 | 5.56° C | 70% | 1026.2 hPa | - | - | 0 W/m² | - |
| 1777363390 | 6.11° C | 67% | 1025.9 hPa | - | - | 0 W/m² | - |
| 1777352585 | 9.44° C | 57% | 1025.9 hPa | - | - | 23 W/m² | - |
| 1777351985 | 8.89° C | 57% | 1026 hPa | - | - | 26 W/m² | - |
| 1777339940 | 13.33° C | 42% | 1026.5 hPa | - | - | 169 W/m² | - |
| 1777336345 | 13.33° C | 42% | 1026.7 hPa | - | - | 224 W/m² | - |
| 1777334485 | 13.33° C | 42% | 1026.8 hPa | - | - | 154 W/m² | - |
| 1777331510 | 12.78° C | 42% | 1027.4 hPa | - | - | 182 W/m² | - |
| 1777329774 | 12.78° C | 42% | 1027.8 hPa | - | - | 249 W/m² | - |
| 1777326696 | 11.67° C | 44% | 1028.1 hPa | - | - | 216 W/m² | - |
| 1777324940 | 11.67° C | 44% | 1028.3 hPa | - | - | 164 W/m² | - |
| 1777322584 | 11.11° C | 45% | 1028.5 hPa | - | - | 231 W/m² | - |
| 1777317751 | 11.11° C | 47% | 1029.1 hPa | - | - | 284 W/m² | - |
| 1777312914 | 8.89° C | 52% | 1029.8 hPa | - | - | 272 W/m² | - |
| 1777311177 | 8.33° C | 57% | 1030 hPa | - | - | 248 W/m² | - |
| 1777308699 | 7.22° C | 56% | 1029.9 hPa | - | - | 101 W/m² | - |
| 1777308203 | 6.11° C | 63% | 1029.9 hPa | - | - | 76 W/m² | - |
| 1777307603 | 5.56° C | 62% | 1030 hPa | - | - | 72 W/m² | - |
| 1777306343 | 4.44° C | 68% | 1030 hPa | - | - | 55 W/m² | - |
| 1777304649 | 3.33° C | 73% | 1030.2 hPa | - | - | 38 W/m² | - |
| 1777303989 | 2.78° C | 73% | 1030.2 hPa | - | - | 33 W/m² | - |
| 1777297939 | 0.56° C | 84% | 1030.2 hPa | - | - | 4 W/m² | - |
| 1777291351 | 3.33° C | 68% | 1029.7 hPa | - | - | 0 W/m² | - |
| 1777289013 | 1.67° C | 76% | 1029.6 hPa | - | - | 0 W/m² | - |
* Rain since midnight (hover to see other rain measurements)
** Current wind speed in m/s (hover to see current wind gust speed)